Time;durP1;ratioP1;P1;durP2;ratioP2;P2;SDS_P1;SDS_P2;PMS_P1;PMS_P2;Temp;Humidity;BMP_temperature;BMP_pressure;BME280_temperature;BME280_humidity;BME280_pressure;Samples;Min_cycle;Max_cycle;Signal;HPM_P1;HPM_P2
2023/03/15 00:00:38;;;;;;;0.47;0.30;;;;;;;;;;5072801;28;20744;-90
2023/03/15 00:03:04;;;;;;;0.40;0.30;;;;;;;;;;5054877;28;20438;-90
2023/03/15 00:05:30;;;;;;;0.30;0.30;;;;;;;;;;5072785;28;20371;-90
2023/03/15 00:07:57;;;;;;;0.27;0.20;;;;;;;;;;5072869;28;20414;-90
2023/03/15 00:10:23;;;;;;;0.20;0.20;;;;;;;;;;5072804;28;20734;-90
2023/03/15 00:12:49;;;;;;;0.70;0.20;;;;;;;;;;5072578;28;20459;-89
2023/03/15 00:15:15;;;;;;;0.55;0.10;;;;;;;;;;5072647;28;20379;-90
2023/03/15 00:17:43;;;;;;;0.22;0.20;;;;;;;;;;5070735;28;20408;-90
2023/03/15 00:20:10;;;;;;;0.20;0.20;;;;;;;;;;5054564;28;20813;-91
2023/03/15 00:22:36;;;;;;;0.22;0.20;;;;;;;;;;5072351;28;20380;-90
2023/03/15 00:25:02;;;;;;;0.30;0.30;;;;;;;;;;5072271;28;20418;-89
2023/03/15 00:27:28;;;;;;;2.10;0.30;;;;;;;;;;5072397;28;20502;-88
2023/03/15 00:29:54;;;;;;;0.30;0.30;;;;;;;;;;5072299;28;20470;-88
2023/03/15 00:32:20;;;;;;;0.40;0.40;;;;;;;;;;5071937;28;20371;-89
2023/03/15 00:34:47;;;;;;;0.40;0.40;;;;;;;;;;5072120;28;20398;-90
2023/03/15 00:37:15;;;;;;;0.90;0.30;;;;;;;;;;5054175;28;20552;-91
2023/03/15 00:39:44;;;;;;;0.40;0.40;;;;;;;;;;5072105;28;20379;-92
2023/03/15 00:42:10;;;;;;;0.40;0.40;;;;;;;;;;5072094;28;20441;-90
2023/03/15 00:44:36;;;;;;;0.75;0.40;;;;;;;;;;5071918;28;20372;-90
2023/03/15 00:47:02;;;;;;;0.40;0.40;;;;;;;;;;5072054;28;20429;-91
2023/03/15 00:49:28;;;;;;;0.30;0.30;;;;;;;;;;5072069;28;20372;-91
2023/03/15 00:51:55;;;;;;;0.90;0.57;;;;;;;;;;5071864;28;20398;-90
2023/03/15 00:54:22;;;;;;;0.40;0.40;;;;;;;;;;5066517;28;20385;-89
2023/03/15 00:56:49;;;;;;;0.50;0.43;;;;;;;;;;5069208;28;20491;-87
2023/03/15 00:59:15;;;;;;;0.40;0.40;;;;;;;;;;5055223;28;20392;-87
2023/03/15 01:01:43;;;;;;;1.02;0.80;;;;;;;;;;5053965;28;20433;-88
2023/03/15 01:04:10;;;;;;;0.95;0.80;;;;;;;;;;5049985;28;20961;-88
2023/03/15 01:06:37;;;;;;;0.88;0.82;;;;;;;;;;5061677;28;20449;-88
2023/03/15 01:09:04;;;;;;;1.10;1.00;;;;;;;;;;5071459;28;20894;-88
2023/03/15 01:11:31;;;;;;;1.80;1.35;;;;;;;;;;5053597;28;20387;-88
2023/03/15 01:13:58;;;;;;;1.35;1.25;;;;;;;;;;5053466;28;20804;-88
2023/03/15 01:16:25;;;;;;;1.55;1.40;;;;;;;;;;5071590;28;20372;-89
2023/03/15 01:18:51;;;;;;;2.30;1.70;;;;;;;;;;5071507;28;20439;-87
2023/03/15 01:21:18;;;;;;;2.50;1.60;;;;;;;;;;5071245;28;20382;-91
2023/03/15 01:23:44;;;;;;;2.22;1.50;;;;;;;;;;5053499;28;20395;-91
2023/03/15 01:26:11;;;;;;;1.70;1.60;;;;;;;;;;5057031;28;20483;-91
2023/03/15 01:28:37;;;;;;;1.92;1.70;;;;;;;;;;5033195;28;20385;-91
2023/03/15 01:31:03;;;;;;;1.80;1.53;;;;;;;;;;5035523;28;20779;-92
2023/03/15 01:33:29;;;;;;;2.13;1.50;;;;;;;;;;5050476;28;20482;-92
2023/03/15 01:36:02;;;;;;;1.77;1.60;;;;;;;;;;5053030;28;20484;-90
2023/03/15 01:38:28;;;;;;;2.20;1.45;;;;;;;;;;5062790;28;20847;-91
2023/03/15 01:40:54;;;;;;;2.25;1.20;;;;;;;;;;5069336;28;20386;-90
2023/03/15 01:43:21;;;;;;;1.98;1.23;;;;;;;;;;5070407;28;20398;-91
2023/03/15 01:46:06;;;;;;;1.27;1.00;;;;;;;;;;5065593;28;20392;-92
2023/03/15 01:48:43;;;;;;;1.48;1.10;;;;;;;;;;5058322;28;20418;-89
2023/03/15 01:51:28;;;;;;;1.97;1.03;;;;;;;;;;5065696;28;20563;-90
2023/03/15 01:54:02;;;;;;;1.23;0.73;;;;;;;;;;5069291;28;20396;-89
2023/03/15 01:56:28;;;;;;;1.10;0.77;;;;;;;;;;5070451;28;20391;-89
2023/03/15 01:58:55;;;;;;;1.52;0.85;;;;;;;;;;5070051;28;20384;-90
2023/03/15 02:01:21;;;;;;;2.38;1.08;;;;;;;;;;5051575;28;20388;-89
2023/03/15 02:03:50;;;;;;;2.25;0.90;;;;;;;;;;5069919;28;20737;-90
2023/03/15 02:06:19;;;;;;;2.53;1.10;;;;;;;;;;5069957;28;20391;-90
2023/03/15 02:08:49;;;;;;;2.75;1.15;;;;;;;;;;5070003;28;20445;-90
2023/03/15 02:11:17;;;;;;;2.05;0.95;;;;;;;;;;5066169;28;20428;-91
2023/03/15 02:13:43;;;;;;;2.63;0.85;;;;;;;;;;5069885;28;20441;-92
2023/03/15 02:16:09;;;;;;;2.08;1.08;;;;;;;;;;5052938;28;20865;-92
2023/03/15 02:18:35;;;;;;;2.33;1.08;;;;;;;;;;5073776;28;20411;-90
2023/03/15 02:21:07;;;;;;;3.90;1.25;;;;;;;;;;5072067;28;20396;-91
2023/03/15 02:23:33;;;;;;;3.00;1.13;;;;;;;;;;5072908;28;20451;-91
2023/03/15 02:25:59;;;;;;;1.52;0.93;;;;;;;;;;5072780;28;20452;-90
2023/03/15 02:28:26;;;;;;;3.53;1.00;;;;;;;;;;5055335;28;20383;-92
2023/03/15 02:30:52;;;;;;;2.05;0.90;;;;;;;;;;5072985;28;20414;-91
2023/03/15 02:33:18;;;;;;;2.27;0.90;;;;;;;;;;5068441;28;20383;-91
2023/03/15 02:35:44;;;;;;;2.53;1.20;;;;;;;;;;5055494;28;20972;-91
2023/03/15 02:38:10;;;;;;;2.22;1.17;;;;;;;;;;5074771;28;20492;-92
2023/03/15 02:40:36;;;;;;;2.20;1.05;;;;;;;;;;5075032;28;20380;-90
2023/03/15 02:43:04;;;;;;;1.50;1.10;;;;;;;;;;5074818;28;20475;-89
2023/03/15 02:45:32;;;;;;;2.08;1.00;;;;;;;;;;5074481;28;20459;-91
2023/03/15 02:47:58;;;;;;;3.28;1.10;;;;;;;;;;5074898;28;20437;-90
2023/03/15 02:50:24;;;;;;;3.03;1.20;;;;;;;;;;5074770;28;20837;-91
2023/03/15 02:52:51;;;;;;;3.40;1.30;;;;;;;;;;5057903;28;20411;-90
2023/03/15 02:55:18;;;;;;;3.43;1.10;;;;;;;;;;5046307;28;20921;-93
2023/03/15 02:57:44;;;;;;;2.78;1.25;;;;;;;;;;5061145;28;20407;-91
2023/03/15 03:00:13;;;;;;;1.92;1.00;;;;;;;;;;5070790;28;20391;-91
2023/03/15 03:02:41;;;;;;;2.38;1.08;;;;;;;;;;5057927;28;20383;-93
2023/03/15 03:05:07;;;;;;;3.65;1.25;;;;;;;;;;5074431;28;20372;-91
2023/03/15 03:07:33;;;;;;;3.50;1.20;;;;;;;;;;5056468;28;20399;-90
2023/03/15 03:09:59;;;;;;;3.38;1.10;;;;;;;;;;5074160;28;20448;-91
2023/03/15 03:12:25;;;;;;;3.47;1.42;;;;;;;;;;5074030;28;20384;-92
2023/03/15 03:14:51;;;;;;;2.13;1.30;;;;;;;;;;5073938;28;20379;-91
2023/03/15 03:17:17;;;;;;;1.85;1.13;;;;;;;;;;5056025;28;20854;-93
2023/03/15 03:19:43;;;;;;;2.70;1.10;;;;;;;;;;5074017;28;20407;-91
2023/03/15 03:22:12;;;;;;;2.95;1.30;;;;;;;;;;5073835;28;20407;-90
2023/03/15 03:24:38;;;;;;;2.72;1.33;;;;;;;;;;5057030;28;20501;-92
2023/03/15 03:27:04;;;;;;;2.70;1.30;;;;;;;;;;5064641;28;20383;-91
2023/03/15 03:29:30;;;;;;;2.55;1.33;;;;;;;;;;5073324;28;20534;-92
2023/03/15 03:31:56;;;;;;;2.20;1.08;;;;;;;;;;5055794;28;20380;-91
2023/03/15 03:34:22;;;;;;;3.83;2.50;;;;;;;;;;5073948;28;20383;-91
2023/03/15 03:36:48;;;;;;;3.70;2.93;;;;;;;;;;5055550;28;20753;-92
2023/03/15 03:39:14;;;;;;;6.47;4.20;;;;;;;;;;5073494;28;20388;-92
2023/03/15 03:41:40;;;;;;;6.40;3.63;;;;;;;;;;5062369;28;20463;-90
2023/03/15 03:44:06;;;;;;;11.07;6.40;;;;;;;;;;5072001;28;20471;-91
2023/03/15 03:46:32;;;;;;;3.20;1.90;;;;;;;;;;5063641;28;20411;-91
2023/03/15 03:48:58;;;;;;;5.15;3.58;;;;;;;;;;5073443;28;20386;-91
2023/03/15 03:51:24;;;;;;;5.95;2.65;;;;;;;;;;5061631;28;20434;-91
2023/03/15 03:53:50;;;;;;;3.37;2.07;;;;;;;;;;5055632;28;20391;-91
2023/03/15 03:56:16;;;;;;;3.45;1.98;;;;;;;;;;5055250;28;20422;-90
2023/03/15 03:58:42;;;;;;;3.13;1.42;;;;;;;;;;5055391;28;20920;-91
2023/03/15 04:01:08;;;;;;;2.35;1.40;;;;;;;;;;5073156;28;20398;-91
2023/03/15 04:03:34;;;;;;;4.20;1.33;;;;;;;;;;5055192;28;20414;-92
2023/03/15 04:06:00;;;;;;;2.40;1.57;;;;;;;;;;5068728;28;20378;-91
2023/03/15 04:08:26;;;;;;;3.45;1.27;;;;;;;;;;5071884;28;20380;-92
2023/03/15 04:10:53;;;;;;;2.22;1.30;;;;;;;;;;5042372;28;20396;-92
2023/03/15 04:13:19;;;;;;;3.30;1.40;;;;;;;;;;5055246;28;20929;-91
2023/03/15 04:15:46;;;;;;;3.25;1.30;;;;;;;;;;5055424;28;20396;-91
2023/03/15 04:18:12;;;;;;;3.33;1.10;;;;;;;;;;5047304;28;20404;-92
2023/03/15 04:20:38;;;;;;;2.95;1.48;;;;;;;;;;5071790;28;20380;-92
2023/03/15 04:23:06;;;;;;;1.77;1.00;;;;;;;;;;5071207;28;20382;-92
2023/03/15 04:25:32;;;;;;;2.40;1.10;;;;;;;;;;5073060;28;20502;-93
2023/03/15 04:27:58;;;;;;;2.83;1.23;;;;;;;;;;5073384;28;20384;-93
2023/03/15 04:30:25;;;;;;;3.90;1.50;;;;;;;;;;5055151;28;20390;-92
2023/03/15 04:32:58;;;;;;;2.70;1.20;;;;;;;;;;5054997;28;20432;-91
2023/03/15 04:35:25;;;;;;;2.35;1.25;;;;;;;;;;5055116;28;20391;-91
2023/03/15 04:37:51;;;;;;;3.00;1.20;;;;;;;;;;5055097;28;20498;-92
2023/03/15 04:40:17;;;;;;;3.85;1.30;;;;;;;;;;5054115;28;20410;-92
2023/03/15 04:42:43;;;;;;;1.30;1.00;;;;;;;;;;5055562;28;20857;-92
2023/03/15 04:45:09;;;;;;;3.93;1.60;;;;;;;;;;5057124;28;20409;-92
2023/03/15 04:47:38;;;;;;;2.67;1.30;;;;;;;;;;5054925;28;20379;-91
2023/03/15 04:50:05;;;;;;;2.65;1.50;;;;;;;;;;5054945;28;20470;-93
2023/03/15 04:52:31;;;;;;;2.95;1.60;;;;;;;;;;5071403;28;20470;-91
2023/03/15 04:54:57;;;;;;;3.45;1.65;;;;;;;;;;5054388;28;20956;-92
2023/03/15 04:57:23;;;;;;;2.92;2.00;;;;;;;;;;5053981;28;20494;-92
2023/03/15 04:59:49;;;;;;;3.95;1.98;;;;;;;;;;5054420;28;20387;-91
2023/03/15 05:02:15;;;;;;;2.83;1.67;;;;;;;;;;5072719;28;20382;-91
2023/03/15 05:04:40;;;;;;;3.53;1.60;;;;;;;;;;5054481;28;20439;-91
2023/03/15 05:07:08;;;;;;;3.17;1.30;;;;;;;;;;5054264;28;20594;-91
2023/03/15 05:09:37;;;;;;;2.73;1.33;;;;;;;;;;5054375;28;20937;-91
2023/03/15 05:12:03;;;;;;;3.00;1.60;;;;;;;;;;5054577;28;20391;-93
2023/03/15 05:14:29;;;;;;;2.58;1.38;;;;;;;;;;5064532;28;20485;-93
2023/03/15 05:16:58;;;;;;;2.40;1.47;;;;;;;;;;5054777;28;20521;-93
2023/03/15 05:19:24;;;;;;;3.07;1.63;;;;;;;;;;5058028;28;20424;-93
2023/03/15 05:21:50;;;;;;;2.42;1.58;;;;;;;;;;5055254;28;20419;-92
2023/03/15 05:24:16;;;;;;;3.20;1.75;;;;;;;;;;5058129;28;20461;-92
2023/03/15 05:26:45;;;;;;;2.40;1.70;;;;;;;;;;5050411;28;20507;-91
2023/03/15 05:29:11;;;;;;;2.85;1.20;;;;;;;;;;5068485;28;20495;-92
2023/03/15 05:31:38;;;;;;;3.42;1.40;;;;;;;;;;5046012;28;20410;-91
2023/03/15 05:34:04;;;;;;;2.65;1.40;;;;;;;;;;5072023;28;20385;-91
2023/03/15 05:36:30;;;;;;;3.97;1.35;;;;;;;;;;5073568;28;20375;-90
2023/03/15 05:38:56;;;;;;;1.98;1.20;;;;;;;;;;5056685;28;20418;-91
2023/03/15 05:41:22;;;;;;;2.30;1.40;;;;;;;;;;5053015;28;20402;-91
2023/03/15 05:43:49;;;;;;;3.80;1.30;;;;;;;;;;5055180;28;20422;-92
2023/03/15 05:46:15;;;;;;;3.92;2.00;;;;;;;;;;5055570;28;20381;-92
2023/03/15 05:48:41;;;;;;;3.20;1.98;;;;;;;;;;5054924;28;20381;-90
2023/03/15 05:51:07;;;;;;;3.08;2.10;;;;;;;;;;5055288;28;20376;-92
2023/03/15 05:53:33;;;;;;;3.10;1.55;;;;;;;;;;5054285;28;20376;-91
2023/03/15 05:55:59;;;;;;;2.60;1.27;;;;;;;;;;5055239;28;20454;-92
2023/03/15 05:58:25;;;;;;;2.03;1.52;;;;;;;;;;5075061;28;20426;-91
2023/03/15 06:00:51;;;;;;;2.97;1.67;;;;;;;;;;5056173;28;20387;-93
2023/03/15 06:03:18;;;;;;;2.65;1.20;;;;;;;;;;5055183;28;20898;-92
2023/03/15 06:05:44;;;;;;;2.35;1.40;;;;;;;;;;5050853;28;20388;-91
2023/03/15 06:08:10;;;;;;;2.37;1.10;;;;;;;;;;5046376;28;20376;-92
2023/03/15 06:10:36;;;;;;;5.25;1.90;;;;;;;;;;5047498;28;20440;-91
2023/03/15 06:13:02;;;;;;;3.00;2.20;;;;;;;;;;5054248;28;20384;-91
2023/03/15 06:15:28;;;;;;;2.63;1.92;;;;;;;;;;5053602;28;20389;-91
2023/03/15 06:17:54;;;;;;;4.43;1.90;;;;;;;;;;5054733;28;20414;-91
2023/03/15 06:20:20;;;;;;;4.22;1.67;;;;;;;;;;5052085;28;20462;-92
2023/03/15 06:22:46;;;;;;;3.33;1.65;;;;;;;;;;5056850;28;20380;-92
2023/03/15 06:25:12;;;;;;;3.28;1.90;;;;;;;;;;5050338;28;20410;-91
2023/03/15 06:27:38;;;;;;;2.90;1.33;;;;;;;;;;5066100;28;20392;-91
2023/03/15 06:30:04;;;;;;;3.25;1.30;;;;;;;;;;5052147;28;20445;-92
2023/03/15 06:32:30;;;;;;;4.05;1.50;;;;;;;;;;5070228;28;20408;-90
2023/03/15 06:34:56;;;;;;;2.88;1.60;;;;;;;;;;5055631;28;20387;-91
2023/03/15 06:37:22;;;;;;;2.85;1.45;;;;;;;;;;5068921;28;20841;-91
2023/03/15 06:39:50;;;;;;;2.67;1.67;;;;;;;;;;5051187;28;20413;-91
2023/03/15 06:42:16;;;;;;;3.88;1.90;;;;;;;;;;5048566;28;20391;-92
2023/03/15 06:44:42;;;;;;;3.15;2.10;;;;;;;;;;5070782;28;20383;-89
2023/03/15 06:47:09;;;;;;;2.90;2.27;;;;;;;;;;5068494;28;20472;-92
2023/03/15 06:49:35;;;;;;;5.93;2.67;;;;;;;;;;5051511;28;20396;-91
2023/03/15 06:52:02;;;;;;;4.38;2.03;;;;;;;;;;5054489;28;20412;-89
2023/03/15 06:54:28;;;;;;;4.25;2.40;;;;;;;;;;5055593;28;20399;-89
2023/03/15 06:56:54;;;;;;;4.60;2.42;;;;;;;;;;5069183;28;20388;-91
2023/03/15 06:59:20;;;;;;;3.28;2.25;;;;;;;;;;5072218;28;20410;-91
2023/03/15 07:01:46;;;;;;;5.07;2.40;;;;;;;;;;5073569;28;20384;-89
2023/03/15 07:04:12;;;;;;;4.25;2.65;;;;;;;;;;5075858;28;20388;-89
2023/03/15 07:06:38;;;;;;;7.00;2.80;;;;;;;;;;5075915;28;20433;-93
2023/03/15 07:09:04;;;;;;;4.07;2.58;;;;;;;;;;5075500;28;20376;-90
2023/03/15 07:11:31;;;;;;;5.45;2.83;;;;;;;;;;5064107;28;20392;-91
2023/03/15 07:13:57;;;;;;;4.50;2.60;;;;;;;;;;5061115;28;20418;-93
2023/03/15 07:16:23;;;;;;;4.53;2.05;;;;;;;;;;5058059;28;20384;-91
2023/03/15 07:18:49;;;;;;;3.17;1.60;;;;;;;;;;5074550;28;20399;-90
2023/03/15 07:21:16;;;;;;;3.90;2.10;;;;;;;;;;5058654;28;20768;-91
2023/03/15 07:23:42;;;;;;;5.82;2.30;;;;;;;;;;5076987;28;20378;-90
2023/03/15 07:26:08;;;;;;;4.10;2.35;;;;;;;;;;5057279;28;20893;-90
2023/03/15 07:28:34;;;;;;;3.80;2.10;;;;;;;;;;5077169;28;20391;-90
2023/03/15 07:31:01;;;;;;;4.07;2.10;;;;;;;;;;5061669;28;20388;-90
2023/03/15 07:33:28;;;;;;;5.18;2.00;;;;;;;;;;5077614;28;20380;-90
2023/03/15 07:35:54;;;;;;;4.88;2.55;;;;;;;;;;5075985;28;20384;-92
2023/03/15 07:38:24;;;;;;;5.13;2.22;;;;;;;;;;5077179;28;20407;-91
2023/03/15 07:40:50;;;;;;;4.07;1.98;;;;;;;;;;5080567;28;20384;-91
2023/03/15 07:43:16;;;;;;;4.20;2.10;;;;;;;;;;5080361;28;20388;-90
2023/03/15 07:45:42;;;;;;;3.47;1.50;;;;;;;;;;5062111;28;20456;-91
2023/03/15 07:48:08;;;;;;;4.38;1.98;;;;;;;;;;5058545;28;20416;-91
2023/03/15 07:50:35;;;;;;;5.00;2.40;;;;;;;;;;5051084;28;20890;-90
2023/03/15 07:53:02;;;;;;;4.63;1.92;;;;;;;;;;5055750;28;20387;-90
2023/03/15 07:55:28;;;;;;;3.17;1.63;;;;;;;;;;5058096;28;20378;-90
2023/03/15 07:57:54;;;;;;;3.42;1.50;;;;;;;;;;5052670;28;20923;-89
2023/03/15 08:00:21;;;;;;;3.67;1.90;;;;;;;;;;5073264;28;20414;-88
2023/03/15 08:02:48;;;;;;;4.60;1.88;;;;;;;;;;5054645;28;20911;-88
2023/03/15 08:05:14;;;;;;;2.40;1.60;;;;;;;;;;5073481;28;20411;-89
2023/03/15 08:07:40;;;;;;;4.85;1.90;;;;;;;;;;5057575;28;20397;-88
2023/03/15 08:10:06;;;;;;;3.58;1.50;;;;;;;;;;5073140;28;20923;-89
2023/03/15 08:12:33;;;;;;;5.10;1.50;;;;;;;;;;5069167;28;20380;-91
2023/03/15 08:14:59;;;;;;;3.08;1.70;;;;;;;;;;5070164;28;20771;-91
2023/03/15 08:17:25;;;;;;;3.33;1.70;;;;;;;;;;5072960;28;20437;-91
2023/03/15 08:19:51;;;;;;;2.88;1.17;;;;;;;;;;5066041;28;20499;-90
2023/03/15 08:22:18;;;;;;;4.97;2.85;;;;;;;;;;5069829;28;20368;-90
2023/03/15 08:24:44;;;;;;;3.95;2.00;;;;;;;;;;5071129;28;20396;-91
2023/03/15 08:27:10;;;;;;;4.20;2.22;;;;;;;;;;5074914;28;20376;-90
2023/03/15 08:29:36;;;;;;;3.67;1.70;;;;;;;;;;5072053;28;20395;-92
2023/03/15 08:32:02;;;;;;;3.85;1.70;;;;;;;;;;5072271;28;20379;-90
2023/03/15 08:34:28;;;;;;;2.90;1.80;;;;;;;;;;5072318;28;20383;-89
2023/03/15 08:36:54;;;;;;;2.78;1.40;;;;;;;;;;5054350;28;20383;-91
2023/03/15 08:39:22;;;;;;;1.90;1.57;;;;;;;;;;5072226;28;20483;-89
2023/03/15 08:41:49;;;;;;;2.50;1.70;;;;;;;;;;5053256;28;20472;-90
2023/03/15 08:44:15;;;;;;;2.42;1.40;;;;;;;;;;5072323;28;20382;-89
2023/03/15 08:46:41;;;;;;;3.80;1.67;;;;;;;;;;5054308;28;20380;-89
2023/03/15 08:49:07;;;;;;;2.03;1.60;;;;;;;;;;5072027;28;20956;-91
2023/03/15 08:51:33;;;;;;;3.28;1.50;;;;;;;;;;5071932;28;20387;-90
2023/03/15 08:54:02;;;;;;;2.97;1.60;;;;;;;;;;5054035;28;20423;-89
2023/03/15 08:56:28;;;;;;;1.83;1.50;;;;;;;;;;5074204;28;20388;-89
2023/03/15 08:58:54;;;;;;;1.95;1.63;;;;;;;;;;5059281;28;20473;-90
2023/03/15 09:01:20;;;;;;;2.40;1.50;;;;;;;;;;5073342;28;20457;-88
2023/03/15 09:03:47;;;;;;;2.55;1.90;;;;;;;;;;5072768;28;20776;-91
2023/03/15 09:06:13;;;;;;;2.57;1.60;;;;;;;;;;5054774;28;20437;-90
2023/03/15 09:08:40;;;;;;;1.85;1.52;;;;;;;;;;5053899;28;20892;-87
2023/03/15 09:11:06;;;;;;;3.00;1.50;;;;;;;;;;5071630;28;20439;-90
2023/03/15 09:13:32;;;;;;;2.63;1.60;;;;;;;;;;5071752;28;20473;-89
2023/03/15 09:15:58;;;;;;;2.17;1.70;;;;;;;;;;5073029;28;20483;-88
2023/03/15 09:18:25;;;;;;;1.67;1.40;;;;;;;;;;5071797;28;20494;-90
2023/03/15 09:20:51;;;;;;;1.50;1.30;;;;;;;;;;5071464;28;20380;-88
2023/03/15 09:23:17;;;;;;;1.83;1.60;;;;;;;;;;5071595;28;20394;-87
2023/03/15 09:25:42;;;;;;;2.00;1.60;;;;;;;;;;5071795;28;20411;-88
2023/03/15 09:28:10;;;;;;;1.85;1.55;;;;;;;;;;5053559;28;20392;-87
2023/03/15 09:30:37;;;;;;;1.65;1.40;;;;;;;;;;5073712;28;20420;-87
2023/03/15 09:33:03;;;;;;;2.35;1.70;;;;;;;;;;5072726;28;20390;-82
2023/03/15 09:35:29;;;;;;;2.33;1.53;;;;;;;;;;5072127;28;20387;-83
2023/03/15 09:37:55;;;;;;;2.58;1.50;;;;;;;;;;5071276;28;20403;-84
2023/03/15 09:40:26;;;;;;;2.60;1.60;;;;;;;;;;5071431;28;20928;-85
2023/03/15 09:42:52;;;;;;;2.03;1.63;;;;;;;;;;5071121;28;20457;-83
2023/03/15 09:45:25;;;;;;;3.17;1.42;;;;;;;;;;5070242;28;20415;-84
2023/03/15 09:48:04;;;;;;;3.40;1.70;;;;;;;;;;5070283;28;20433;-86
2023/03/15 09:50:32;;;;;;;1.97;1.30;;;;;;;;;;5065799;28;20417;-87
2023/03/15 09:53:00;;;;;;;2.33;1.38;;;;;;;;;;5070175;28;20379;-87
2023/03/15 09:55:27;;;;;;;3.15;1.52;;;;;;;;;;5070827;28;20412;-87
2023/03/15 09:57:55;;;;;;;1.75;1.65;;;;;;;;;;5070989;28;20494;-87
2023/03/15 10:00:26;;;;;;;2.70;1.30;;;;;;;;;;5070978;28;20491;-86
2023/03/15 10:02:58;;;;;;;1.30;1.20;;;;;;;;;;5071143;28;20375;-86
2023/03/15 10:05:28;;;;;;;1.43;1.20;;;;;;;;;;5070933;28;20382;-87
2023/03/15 10:07:54;;;;;;;1.65;1.30;;;;;;;;;;5071036;28;20380;-87
2023/03/15 10:10:22;;;;;;;1.70;1.30;;;;;;;;;;5070994;28;20487;-86
2023/03/15 10:12:54;;;;;;;2.65;1.40;;;;;;;;;;5066984;28;20379;-85
2023/03/15 10:15:44;;;;;;;1.73;1.00;;;;;;;;;;5068216;28;20376;-85
2023/03/15 10:18:16;;;;;;;0.73;0.70;;;;;;;;;;5055703;28;20516;-86
2023/03/15 10:20:46;;;;;;;1.33;0.90;;;;;;;;;;5050034;28;20443;-86
2023/03/15 10:23:12;;;;;;;2.08;1.15;;;;;;;;;;5069858;28;20379;-86
2023/03/15 10:25:38;;;;;;;1.45;1.02;;;;;;;;;;5070219;28;20885;-86
2023/03/15 10:28:07;;;;;;;2.13;1.00;;;;;;;;;;5064854;28;20389;-85
2023/03/15 10:30:34;;;;;;;1.70;0.88;;;;;;;;;;5061092;28;20376;-85
2023/03/15 10:33:21;;;;;;;1.65;0.80;;;;;;;;;;5070033;28;20545;-85
2023/03/15 10:35:47;;;;;;;1.20;0.80;;;;;;;;;;5069910;28;20386;-85
2023/03/15 10:38:14;;;;;;;1.13;0.73;;;;;;;;;;5055345;28;20955;-84
2023/03/15 10:40:44;;;;;;;2.13;1.60;;;;;;;;;;5074548;28;20419;-86
2023/03/15 10:43:21;;;;;;;1.07;0.90;;;;;;;;;;5073676;28;20387;-84
2023/03/15 10:45:57;;;;;;;1.13;1.00;;;;;;;;;;5068077;28;20521;-85
2023/03/15 10:48:23;;;;;;;1.80;1.20;;;;;;;;;;5060873;28;20435;-86
2023/03/15 10:50:50;;;;;;;1.75;1.13;;;;;;;;;;5071968;28;20433;-86
2023/03/15 10:53:19;;;;;;;1.50;1.13;;;;;;;;;;5074173;28;20399;-85
2023/03/15 10:55:46;;;;;;;2.08;0.82;;;;;;;;;;5055271;28;20392;-86
2023/03/15 10:58:26;;;;;;;1.45;0.90;;;;;;;;;;5073798;28;20411;-85
2023/03/15 11:00:58;;;;;;;1.75;0.80;;;;;;;;;;5074079;28;20842;-85
2023/03/15 11:03:24;;;;;;;1.05;0.77;;;;;;;;;;5068706;28;20409;-87
2023/03/15 11:05:54;;;;;;;1.80;0.88;;;;;;;;;;5086608;22;20435;-79
2023/03/15 11:08:22;;;;;;;2.05;0.90;;;;;;;;;;5074578;28;20376;-79
2023/03/15 11:10:56;;;;;;;2.13;1.02;;;;;;;;;;5074927;28;20380;-79
2023/03/15 11:13:27;;;;;;;1.75;1.00;;;;;;;;;;5074547;28;20384;-79
2023/03/15 11:15:53;;;;;;;1.02;0.73;;;;;;;;;;5074190;28;20404;-79
2023/03/15 11:18:24;;;;;;;0.93;0.60;;;;;;;;;;5073937;28;20430;-78
2023/03/15 11:20:53;;;;;;;1.15;0.70;;;;;;;;;;5074041;28;20396;-79
2023/03/15 11:23:25;;;;;;;1.08;0.60;;;;;;;;;;5074006;28;20430;-79
2023/03/15 11:25:51;;;;;;;1.38;0.50;;;;;;;;;;5073747;28;20415;-79
2023/03/15 11:28:19;;;;;;;0.82;0.60;;;;;;;;;;5068585;28;20862;-79
2023/03/15 11:30:46;;;;;;;1.40;0.60;;;;;;;;;;5068894;28;20375;-79
2023/03/15 11:33:21;;;;;;;1.08;0.63;;;;;;;;;;5069329;28;20437;-79
2023/03/15 11:35:48;;;;;;;1.40;0.50;;;;;;;;;;5073461;28;20379;-80
2023/03/15 11:38:18;;;;;;;0.70;0.60;;;;;;;;;;5070948;28;20430;-80
2023/03/15 11:40:46;;;;;;;1.10;0.60;;;;;;;;;;5053890;28;20393;-79
2023/03/15 11:43:15;;;;;;;1.17;0.50;;;;;;;;;;5063171;28;20382;-79
2023/03/15 11:45:44;;;;;;;0.65;0.50;;;;;;;;;;5052497;28;20424;-79
2023/03/15 11:48:11;;;;;;;0.52;0.43;;;;;;;;;;5057289;28;20382;-79
2023/03/15 11:50:37;;;;;;;0.57;0.40;;;;;;;;;;5055987;28;20385;-80
2023/03/15 11:53:05;;;;;;;0.55;0.43;;;;;;;;;;5061205;28;20417;-79
2023/03/15 11:55:32;;;;;;;0.40;0.40;;;;;;;;;;5068711;28;20392;-80
2023/03/15 11:58:17;;;;;;;0.77;0.65;;;;;;;;;;5071823;28;20407;-80
2023/03/15 12:00:48;;;;;;;0.95;0.47;;;;;;;;;;5070557;28;20884;-78
2023/03/15 12:03:25;;;;;;;0.80;0.50;;;;;;;;;;5072019;28;20378;-79
2023/03/15 12:05:51;;;;;;;0.80;0.50;;;;;;;;;;5071535;28;20420;-82
2023/03/15 12:08:34;;;;;;;1.00;0.60;;;;;;;;;;5073297;28;20522;-80
2023/03/15 12:11:00;;;;;;;0.57;0.30;;;;;;;;;;5070845;28;20387;-79
2023/03/15 12:13:28;;;;;;;0.73;0.55;;;;;;;;;;5070820;28;20380;-79
2023/03/15 12:15:55;;;;;;;0.70;0.50;;;;;;;;;;5070694;28;20883;-79
2023/03/15 12:18:24;;;;;;;0.93;0.60;;;;;;;;;;5066132;28;20788;-79
2023/03/15 12:21:07;;;;;;;1.13;0.40;;;;;;;;;;5069100;28;20384;-79
2023/03/15 12:23:38;;;;;;;0.70;0.40;;;;;;;;;;5069382;28;20375;-78
2023/03/15 12:26:06;;;;;;;1.92;0.40;;;;;;;;;;5070509;28;20433;-79
2023/03/15 12:28:35;;;;;;;0.85;0.40;;;;;;;;;;5070645;28;20449;-79
2023/03/15 12:31:02;;;;;;;1.45;0.47;;;;;;;;;;5070423;28;20387;-79
2023/03/15 12:33:30;;;;;;;1.10;0.40;;;;;;;;;;5070300;28;20436;-79
2023/03/15 12:36:07;;;;;;;3.50;0.50;;;;;;;;;;5070463;28;20459;-79
2023/03/15 12:38:35;;;;;;;0.85;0.50;;;;;;;;;;5080728;28;20902;-79
2023/03/15 12:41:05;;;;;;;1.48;0.50;;;;;;;;;;5070015;28;20434;-79
2023/03/15 12:43:39;;;;;;;0.88;0.40;;;;;;;;;;5069996;28;20375;-79
2023/03/15 12:46:06;;;;;;;1.17;0.40;;;;;;;;;;5069802;28;20372;-79
2023/03/15 12:48:32;;;;;;;0.50;0.40;;;;;;;;;;5072494;28;20395;-79
2023/03/15 12:51:00;;;;;;;2.50;0.60;;;;;;;;;;5071941;28;20457;-80
2023/03/15 12:53:36;;;;;;;1.70;0.40;;;;;;;;;;5070696;28;20465;-77
2023/03/15 12:56:21;;;;;;;1.25;0.60;;;;;;;;;;5073086;28;20375;-79
2023/03/15 12:58:50;;;;;;;1.20;0.45;;;;;;;;;;5071912;28;20778;-79
2023/03/15 13:01:17;;;;;;;1.40;0.70;;;;;;;;;;5071080;28;20387;-78
2023/03/15 13:03:43;;;;;;;1.20;0.60;;;;;;;;;;5071942;28;20376;-79
2023/03/15 13:06:29;;;;;;;1.00;0.50;;;;;;;;;;5071634;28;20413;-79
2023/03/15 13:09:13;;;;;;;1.58;0.77;;;;;;;;;;5066120;28;20379;-79
2023/03/15 13:11:42;;;;;;;0.90;0.50;;;;;;;;;;5069136;28;20379;-79
2023/03/15 13:14:18;;;;;;;1.23;0.80;;;;;;;;;;5070151;28;20419;-79
2023/03/15 13:16:55;;;;;;;1.20;0.60;;;;;;;;;;5071514;28;20376;-80
2023/03/15 13:19:31;;;;;;;1.02;0.60;;;;;;;;;;5070612;28;20572;-80
2023/03/15 13:22:06;;;;;;;0.63;0.45;;;;;;;;;;5071624;28;20368;-80
2023/03/15 13:24:51;;;;;;;1.30;0.50;;;;;;;;;;5070857;28;20386;-79
2023/03/15 13:27:17;;;;;;;1.30;0.80;;;;;;;;;;5070875;28;20380;-79
2023/03/15 13:29:43;;;;;;;1.63;0.70;;;;;;;;;;5069998;28;20398;-79
2023/03/15 13:32:14;;;;;;;1.25;0.65;;;;;;;;;;5070716;28;20410;-79
2023/03/15 13:34:41;;;;;;;1.40;0.77;;;;;;;;;;5070889;28;20467;-79
2023/03/15 13:37:13;;;;;;;1.60;0.90;;;;;;;;;;5070479;28;20459;-78
2023/03/15 13:39:39;;;;;;;1.23;0.40;;;;;;;;;;5070896;28;20865;-79
2023/03/15 13:42:06;;;;;;;0.65;0.30;;;;;;;;;;5071132;28;20414;-80
2023/03/15 13:44:33;;;;;;;1.55;0.47;;;;;;;;;;5071151;28;20380;-79
2023/03/15 13:46:59;;;;;;;0.75;0.40;;;;;;;;;;5066538;28;20388;-80
2023/03/15 13:49:30;;;;;;;0.73;0.30;;;;;;;;;;5071403;28;20372;-80
2023/03/15 13:51:56;;;;;;;0.77;0.40;;;;;;;;;;5071374;28;20387;-80
2023/03/15 13:54:32;;;;;;;1.52;0.50;;;;;;;;;;5071062;28;20908;-80
2023/03/15 13:57:03;;;;;;;1.48;0.57;;;;;;;;;;5068775;28;20785;-80
2023/03/15 13:59:52;;;;;;;0.65;0.50;;;;;;;;;;5072991;28;20461;-80
2023/03/15 14:02:24;;;;;;;0.52;0.50;;;;;;;;;;5067414;28;20411;-79
2023/03/15 14:04:56;;;;;;;0.85;0.45;;;;;;;;;;5071165;28;20372;-80
2023/03/15 14:07:25;;;;;;;0.60;0.32;;;;;;;;;;5070940;28;20411;-80
2023/03/15 14:10:10;;;;;;;0.73;0.30;;;;;;;;;;5071246;28;20429;-80
2023/03/15 14:12:37;;;;;;;1.38;0.52;;;;;;;;;;5072392;28;20381;-80
2023/03/15 14:15:03;;;;;;;1.92;1.08;;;;;;;;;;5074877;28;20919;-80
2023/03/15 14:17:30;;;;;;;1.38;0.98;;;;;;;;;;5074746;28;20407;-79
2023/03/15 14:20:06;;;;;;;1.70;0.77;;;;;;;;;;5075136;28;20880;-79
2023/03/15 14:22:32;;;;;;;1.20;0.40;;;;;;;;;;5075031;28;20380;-79
2023/03/15 14:24:58;;;;;;;3.03;0.40;;;;;;;;;;5074862;28;20471;-79
2023/03/15 14:27:29;;;;;;;1.80;0.47;;;;;;;;;;5074975;28;20886;-80
2023/03/15 14:29:56;;;;;;;1.90;0.45;;;;;;;;;;5074878;28;20448;-80
2023/03/15 14:32:22;;;;;;;1.90;0.32;;;;;;;;;;5074991;28;20462;-80
2023/03/15 14:34:48;;;;;;;0.57;0.40;;;;;;;;;;5074773;28;20429;-80
2023/03/15 14:37:44;;;;;;;0.40;0.30;;;;;;;;;;5074780;28;20375;-80
2023/03/15 14:40:14;;;;;;;0.63;0.30;;;;;;;;;;5058729;28;20422;-79
2023/03/15 14:42:40;;;;;;;3.50;0.50;;;;;;;;;;5068885;28;20470;-80
2023/03/15 14:45:06;;;;;;;0.55;0.20;;;;;;;;;;5074837;28;20883;-79
2023/03/15 14:47:35;;;;;;;0.43;0.30;;;;;;;;;;5075366;28;20384;-80